Nearby METAR Reports

 

KCGS - College Park, Maryland, USA
Distance from station: S 2mi, 3km
Updated: 09/20/2018 5:08am
Overcast
Overcast
 Wind from calm
Wind: Calm
Temperature: 64°F , 18°C
Dew Point: 64°F , 18°C
Humidity: 100%
Barometer: 30.08 inHg , 1018.6 hPa
Clouds: Overcast
Visibility: 10 miles , 16 km
Cloud details: Overcast 4100 ft
2018/09/20 09:08 KCGS 200908Z AUTO 00000KT 10SM OVC041 18/18 A3008 RMK AO1 T01820175
KFME - Fort Meade, Maryland, USA
Distance from station: ENE 10mi, 15km
Updated: 09/20/2018 5:06am
Clear
Clear
 Wind from calm
Wind: Calm
Temperature: 61°F , 16°C
Dew Point: 61°F , 16°C
Humidity: 100%
Barometer: 30.11 inHg , 1019.6 hPa
Clouds: Clear
Visibility: 4 miles , 6 km
2018/09/20 09:06 KFME 200906Z AUTO 00000KT 4SM CLR 16/16 A3011 RMK AO1
KDCA - Washington/Natl, Washington D.c., USA
Distance from station: SSW 13mi, 20km
Updated: 09/20/2018 5:10am
Mostly cloudy
Mostly cloudy
 Wind from N
Wind: N 6 mph , 9 km/h
Temperature: 70°F , 21°C
Dew Point: 64°F , 18°C
Humidity: 83%
Barometer: 30.08 inHg , 1018.6 hPa
Clouds: Mostly cloudy
Visibility: 10 miles , 16 km
Cloud details: Mostly cloudy 4000 ft
2018/09/20 09:10 KDCA 200910Z 01005KT 10SM BKN040 21/18 A3008 RMK AO2 T02110178
 
KADW - Andrews Afb, Maryland, USA
Distance from station: SSE 14mi, 22km
Updated: 09/19/2018 6:56pm
NOT Current
Clear
Clear
 Wind from NNE
Wind: NNE 3 mph , 6 km/h
Temperature: 77°F , 25°C
Dew Point: 64°F , 18°C
Humidity: 65%
Barometer: 29.96 inHg , 1014.6 hPa
Clouds: Clear
Visibility: 10 miles , 16 km
2018/09/19 22:56 KADW 192256Z AUTO 03003KT 10SM CLR 25/18 A2996 RMK AO2 SLP150 T02530182 $
KBWI - Balto/Wash Intl, Maryland, USA
Distance from station: NE 17mi, 27km
Updated: 09/20/2018 5:11am
Overcast
Overcast
 Wind from NNE
Wind: NNE 5 mph , 7 km/h
Temperature: 66°F , 19°C
Dew Point: 63°F , 17°C
Humidity: 88%
Barometer: 30.08 inHg , 1018.6 hPa
Clouds: Overcast
Visibility: 10 miles , 16 km
Cloud details: Partly cloudy 1000 ft
Overcast 2100 ft
2018/09/20 09:11 KBWI 200911Z 03004KT 10SM SCT010 OVC021 19/17 A3008 RMK AO2 T01940172
KGAI - Gaithersburg, Maryland, USA
Distance from station: NW 17mi, 28km
Updated: 09/20/2018 4:56am
Partly cloudy
Partly cloudy
 Wind from calm
Wind: Calm
Temperature: 63°F , 17°C
Dew Point: 61°F , 16°C
Humidity: 94%
Barometer: 30.10 inHg , 1019.3 hPa
Clouds: Partly cloudy
Visibility: 10 miles , 16 km
Cloud details: Partly cloudy 4300 ft
2018/09/20 08:56 KGAI 200856Z AUTO 00000KT 10SM SCT043 17/16 A3010 RMK AO2 SLP215 T01720161 53005
 
KNAK - Annapolis/Naval, Maryland, USA
Distance from station: E 23mi, 38km
Updated: 09/20/2018 5:03am
Overcast
Overcast
 Wind from E
Wind: E 7 mph , 11 km/h
Temperature: 73°F , 23°C
Dew Point: 70°F , 21°C
Humidity: 89%
Barometer: 30.07 inHg , 1018.3 hPa
Clouds: Overcast
Visibility: 7 miles , 11 km
Cloud details: Partly cloudy 1200 ft
Overcast 1900 ft
2018/09/20 09:03 KNAK 200903Z AUTO 10006KT 7SM SCT012 OVC019 23/21 A3007 RMK AO2 T02330211 $
KDAA - Fort Belvoir/Dav, Virginia, USA
Distance from station: SSW 24mi, 39km
Updated: 09/19/2018 6:56pm
NOT Current
Clear
Clear
 Wind from calm
Wind: Calm
Temperature: 77°F , 25°C
Dew Point: 75°F , 24°C
Humidity: 94%
Barometer: 29.95 inHg , 1014.2 hPa
Clouds: Clear
Visibility: 10 miles , 16 km
2018/09/19 22:56 KDAA 192256Z AUTO 00000KT 10SM CLR 25/24 A2995 RMK AO2 SLP145 T02460239 TSNO $
KDMH - Baltimore/Dwntwn, Maryland, USA
Distance from station: NE 25mi, 40km
Updated: 09/20/2018 4:54am

 
Temperature: 70°F , 21°C
Dew Point: 63°F , 17°C
Humidity: 78%
Barometer: 30.07 inHg , 1018.3 hPa
2018/09/20 08:54 KDMH 200854Z AUTO 21/17 A3007 RMK AO1 SLP183 T02110172 53005
 
KIAD - Wash Dc/Dulles, Virginia, USA
Distance from station: W 29mi, 47km
Updated: 09/20/2018 4:52am
Partly cloudy
Partly cloudy
 Wind from calm
Wind: Calm
Temperature: 66°F , 19°C
Dew Point: 64°F , 18°C
Humidity: 94%
Barometer: 30.09 inHg , 1019 hPa
Clouds: Partly cloudy
Visibility: 10 miles , 16 km
Cloud details: Partly cloudy 25000 ft
2018/09/20 08:52 KIAD 200852Z 00000KT 10SM SCT250 19/18 A3009 RMK AO2 SLP185 T01890183 53006
KW29 - Stevensville, Maryland, USA
Distance from station: E 31mi, 51km
Updated: 09/20/2018 5:05am
Mist, Partly cloudy
Mist, Partly cloudy
 Wind from calm
Wind: Calm
Temperature: 68°F , 20°C
Dew Point: 68°F , 20°C
Humidity: 100%
Barometer: 30.08 inHg , 1018.6 hPa
Summary: Mist
Clouds: Partly cloudy
Visibility: 5 miles , 8 km
Cloud details: Partly cloudy 1200 ft
2018/09/20 09:05 KW29 200905Z AUTO 00000KT 5SM BR SCT012 20/20 A3008 RMK AO2
KMTN - Baltimore/Martin, Maryland, USA
Distance from station: NE 34mi, 55km
Updated: 09/20/2018 5:03am
Mostly cloudy
Mostly cloudy
 Wind from calm
Wind: Calm
Temperature: 68°F , 20°C
Dew Point: 66°F , 19°C
Humidity: 94%
Barometer: 30.09 inHg , 1019 hPa
Clouds: Mostly cloudy
Visibility: 10 miles , 16 km
Cloud details: Mostly cloudy 1100 ft
Mostly cloudy 2000 ft
2018/09/20 09:03 KMTN 200903Z AUTO 00000KT 10SM BKN011 BKN020 20/19 A3009 RMK AO2
 
KJYO - Leesburg/Godfrey, Virginia, USA
Distance from station: W 35mi, 56km
Updated: 09/20/2018 4:55am
Clear
Clear
 Wind from NNE
Wind: NNE 5 mph , 7 km/h
Temperature: 63°F , 17°C
Dew Point: 63°F , 17°C
Humidity: 100%
Barometer: 30.10 inHg , 1019.3 hPa
Clouds: Clear
Visibility: 10 miles , 16 km
2018/09/20 08:55 KJYO 200855Z AUTO 03004KT 10SM CLR 17/17 A3010 RMK AO2
KFDK - Frederick, Maryland, USA
Distance from station: NW 37mi, 60km
Updated: 09/20/2018 5:05am
Clear
Clear
 Wind from calm
Wind: Calm
Temperature: 64°F , 18°C
Dew Point: 63°F , 17°C
Humidity: 94%
Barometer: 30.12 inHg , 1020 hPa
Clouds: Clear
Visibility: 10 miles , 16 km
2018/09/20 09:05 KFDK 200905Z AUTO 00000KT 10SM CLR 18/17 A3012 RMK AO2
KHEF - Manassas Muni, Virginia, USA
Distance from station: WSW 38mi, 61km
Updated: 09/20/2018 4:56am
Clear
Clear
 Wind from calm
Wind: Calm
Temperature: 64°F , 18°C
Dew Point: 64°F , 18°C
Humidity: 100%
Barometer: 30.08 inHg , 1018.6 hPa
Clouds: Clear
Visibility: 10 miles , 16 km
2018/09/20 08:56 KHEF 200856Z AUTO 00000KT 10SM CLR 18/18 A3008 RMK AO2 SLP193 6//// T01830178 53004 PNO $
 
KNYG - Quantico Mcaf, Virginia, USA
Distance from station: SSW 40mi, 65km
Updated: 09/20/2018 4:56am
Clear
Clear
 Wind from NW
Wind: NW 5 mph , 7 km/h
Temperature: 68°F , 20°C
Dew Point: 68°F , 20°C
Humidity: 100%
Barometer: 30.07 inHg , 1018.3 hPa
Clouds: Clear
Visibility: 10 miles , 16 km
2018/09/20 08:56 KNYG 200856Z AUTO 31004KT 10SM CLR 20/20 A3007 RMK AO2 SLP184 T02000200 53005
KDMW - Carroll Cnty, Maryland, USA
Distance from station: N 41mi, 66km
Updated: 09/20/2018 5:05am
Partly cloudy
Partly cloudy
 Wind from calm
Wind: Calm
Temperature: 64°F , 18°C
Dew Point: 61°F , 16°C
Humidity: 88%
Barometer: 30.10 inHg , 1019.3 hPa
Clouds: Partly cloudy
Visibility: 10 miles , 16 km
Cloud details: Partly cloudy 3600 ft
2018/09/20 09:05 KDMW 200905Z AUTO 00000KT 10SM SCT036 18/16 A3010 RMK AO2
KESN - Easton/Newnam, Maryland, USA
Distance from station: ESE 48mi, 77km
Updated: 09/20/2018 5:18am
Mist, Mostly cloudy
Mist, Mostly cloudy
 Wind from calm
Wind: Calm
Temperature: 70°F , 21°C
Dew Point: 68°F , 20°C
Humidity: 94%
Barometer: 30.11 inHg , 1019.6 hPa
Summary: Mist
Clouds: Mostly cloudy
Visibility: 5 miles , 8 km
Cloud details: Partly cloudy 1300 ft
Mostly cloudy 2900 ft
2018/09/20 09:18 KESN 200918Z AUTO 00000KT 5SM BR SCT013 BKN029 21/20 A3011 RMK AO2 T02070201